createdAt,value
2023-04-27T00:01:16.562Z,94.04
2023-04-27T00:03:46.058Z,95.15
2023-04-27T00:06:15.722Z,95.34
2023-04-27T00:08:45.465Z,95.53
2023-04-27T00:11:14.714Z,95.74
2023-04-27T00:13:44.089Z,95.56
2023-04-27T00:16:13.396Z,95.74
2023-04-27T00:18:42.903Z,96.07
2023-04-27T00:21:12.177Z,95.66
2023-04-27T00:23:41.494Z,95.97
2023-04-27T00:26:10.785Z,96.13
2023-04-27T00:28:41.225Z,96.90
2023-04-27T00:31:10.514Z,97.18
2023-04-27T00:33:39.772Z,97.24
2023-04-27T00:36:10.397Z,97.88
2023-04-27T00:38:40.022Z,97.96
2023-04-27T00:41:09.640Z,97.50
2023-04-27T00:43:46.355Z,97.27
2023-04-27T00:46:16.649Z,97.35
2023-04-27T00:48:46.359Z,97.49
2023-04-27T00:51:16.113Z,97.88
2023-04-27T00:53:45.560Z,98.08
2023-04-27T00:56:15.175Z,97.65
2023-04-27T00:58:44.447Z,97.76
2023-04-27T01:01:13.826Z,97.83
2023-04-27T01:03:43.309Z,98.53
2023-04-27T01:06:13.036Z,98.65
2023-04-27T01:08:44.246Z,99.74
2023-04-27T01:11:14.123Z,99.38
2023-04-27T01:13:43.583Z,99.02
2023-04-27T01:16:12.957Z,99.12
2023-04-27T01:18:42.369Z,99.18
2023-04-27T01:21:12.029Z,99.73
2023-04-27T01:23:41.610Z,99.69
2023-04-27T01:26:14.248Z,99.68
2023-04-27T01:28:44.252Z,99.67
2023-04-27T01:31:13.912Z,99.62
2023-04-27T01:33:43.941Z,100.00
2023-04-27T01:36:15.018Z,99.47
2023-04-27T01:38:44.644Z,99.30
2023-04-27T01:41:14.949Z,99.16
2023-04-27T01:43:44.430Z,98.91
2023-04-27T01:46:14.809Z,98.74
2023-04-27T01:48:44.344Z,98.75
2023-04-27T01:51:13.681Z,98.92
2023-04-27T01:53:43.613Z,98.93
2023-04-27T01:56:12.975Z,99.17
2023-04-27T01:58:42.413Z,99.18
2023-04-27T02:01:11.748Z,99.26
2023-04-27T02:03:42.114Z,99.23
2023-04-27T02:06:12.162Z,99.67
2023-04-27T02:08:41.531Z,99.34
2023-04-27T02:11:10.903Z,99.47
2023-04-27T02:13:40.435Z,99.62
2023-04-27T02:16:09.934Z,99.68
2023-04-27T02:18:41.785Z,99.97
2023-04-27T02:21:11.717Z,99.96
2023-04-27T02:23:40.973Z,100.00
2023-04-27T02:26:19.530Z,99.94
2023-04-27T02:28:50.132Z,99.85
2023-04-27T02:31:19.876Z,99.83
2023-04-27T02:33:51.054Z,99.92
2023-04-27T02:36:20.856Z,99.95
2023-04-27T02:38:50.143Z,100.00
2023-04-27T02:41:19.497Z,100.00
2023-04-27T02:43:51.459Z,100.00
2023-04-27T02:46:20.995Z,100.00
2023-04-27T02:48:50.255Z,100.00
2023-04-27T02:51:19.600Z,100.00
2023-04-27T02:53:48.870Z,100.00
2023-04-27T02:56:18.457Z,100.00
2023-04-27T02:58:48.110Z,99.90
2023-04-27T03:01:18.121Z,99.49
2023-04-27T03:03:48.221Z,98.85
2023-04-27T03:06:17.632Z,98.56
2023-04-27T03:08:46.869Z,98.83
2023-04-27T03:11:16.627Z,98.74
2023-04-27T03:13:46.159Z,98.44
2023-04-27T03:16:15.457Z,98.52
2023-04-27T03:18:44.866Z,98.70
2023-04-27T03:21:16.546Z,98.51
2023-04-27T03:23:45.894Z,98.95
2023-04-27T03:26:15.776Z,99.59
2023-04-27T03:28:45.053Z,99.30
2023-04-27T03:31:15.608Z,98.80
2023-04-27T03:33:45.269Z,98.80
2023-04-27T03:36:14.790Z,98.74
2023-04-27T03:38:44.708Z,98.85
2023-04-27T03:41:14.209Z,99.17
2023-04-27T03:43:43.508Z,98.86
2023-04-27T03:46:12.973Z,99.35
2023-04-27T03:48:43.872Z,99.06
2023-04-27T03:51:13.657Z,99.00
2023-04-27T03:53:44.470Z,98.85
2023-04-27T03:56:13.896Z,98.82
2023-04-27T03:58:43.130Z,99.35
2023-04-27T04:01:18.588Z,98.74
2023-04-27T04:03:48.300Z,99.40
2023-04-27T04:06:18.850Z,99.75
2023-04-27T04:08:48.098Z,99.66
2023-04-27T04:11:17.489Z,99.85
2023-04-27T04:13:47.402Z,99.86
2023-04-27T04:16:17.130Z,99.80
2023-04-27T04:18:46.512Z,99.87
2023-04-27T04:21:16.256Z,99.17
2023-04-27T04:23:45.602Z,99.25
2023-04-27T04:26:15.344Z,99.11
2023-04-27T04:28:45.999Z,99.57
2023-04-27T04:31:17.159Z,99.60
2023-04-27T04:33:46.970Z,99.57
2023-04-27T04:36:17.002Z,99.43
2023-04-27T04:38:46.584Z,99.80
2023-04-27T04:41:19.298Z,99.78
2023-04-27T04:43:49.424Z,99.68
2023-04-27T04:46:20.040Z,98.74
2023-04-27T04:48:49.472Z,98.44
2023-04-27T04:51:19.057Z,98.07
2023-04-27T04:53:48.407Z,97.82
2023-04-27T04:56:17.744Z,96.85
2023-04-27T04:58:47.351Z,96.93
2023-04-27T05:01:16.666Z,95.98
2023-04-27T05:03:46.226Z,95.87
2023-04-27T05:06:15.697Z,95.50
2023-04-27T05:08:44.956Z,95.42
2023-04-27T05:11:14.915Z,94.75
2023-04-27T05:13:44.244Z,94.54
2023-04-27T05:16:14.027Z,94.04
2023-04-27T05:18:43.335Z,94.13
2023-04-27T05:21:20.497Z,92.95
2023-04-27T05:23:50.276Z,92.01
2023-04-27T05:26:19.884Z,91.15
2023-04-27T05:28:49.431Z,89.59
2023-04-27T05:31:19.192Z,85.29
2023-04-27T05:33:48.953Z,81.73
2023-04-27T05:36:18.291Z,79.06
2023-04-27T05:38:47.957Z,75.67
2023-04-27T05:41:17.391Z,76.40
2023-04-27T05:43:46.833Z,75.49
2023-04-27T05:46:16.418Z,75.32
2023-04-27T05:48:45.858Z,75.28
2023-04-27T05:51:16.662Z,73.96
2023-04-27T05:53:46.850Z,69.97
2023-04-27T05:56:16.350Z,66.94
2023-04-27T05:58:45.975Z,65.20
2023-04-27T06:01:15.557Z,68.27
2023-04-27T06:03:45.005Z,70.17
2023-04-27T06:06:14.908Z,69.68
2023-04-27T06:08:44.339Z,69.20
2023-04-27T06:11:13.942Z,69.24
2023-04-27T06:13:43.293Z,67.54
2023-04-27T06:16:14.052Z,68.43
2023-04-27T06:18:43.482Z,68.94
2023-04-27T06:21:12.904Z,68.50
2023-04-27T06:23:42.205Z,67.72
2023-04-27T06:26:11.696Z,69.20
2023-04-27T06:28:41.300Z,71.37
2023-04-27T06:31:10.726Z,72.17
2023-04-27T06:33:40.004Z,72.08
2023-04-27T06:36:09.578Z,71.01
2023-04-27T06:38:39.076Z,70.78
2023-04-27T06:41:08.350Z,70.39
2023-04-27T06:43:37.636Z,70.25
2023-04-27T06:46:08.209Z,71.65
2023-04-27T06:48:37.454Z,70.38
2023-04-27T06:51:07.100Z,73.84
2023-04-27T06:53:36.800Z,73.74
2023-04-27T06:56:07.540Z,72.02
2023-04-27T06:58:37.723Z,73.84
2023-04-27T07:01:07.423Z,73.10
2023-04-27T07:03:37.457Z,73.84
2023-04-27T07:06:07.479Z,72.73
2023-04-27T07:08:37.085Z,69.96
2023-04-27T07:11:06.728Z,71.17
2023-04-27T07:13:36.033Z,70.51
2023-04-27T07:16:06.479Z,71.81
2023-04-27T07:18:36.284Z,71.67
2023-04-27T07:21:06.001Z,71.52
2023-04-27T07:23:35.266Z,70.55
2023-04-27T07:26:04.692Z,69.90
2023-04-27T07:28:35.476Z,71.51
2023-04-27T07:31:08.278Z,69.73
2023-04-27T07:33:38.080Z,70.63
2023-04-27T07:36:08.031Z,70.06
2023-04-27T07:38:38.874Z,68.92
2023-04-27T07:41:09.070Z,69.00
2023-04-27T07:43:38.677Z,68.48
2023-04-27T07:46:08.326Z,64.73
2023-04-27T07:48:38.000Z,64.73
2023-04-27T07:51:07.634Z,66.27
2023-04-27T07:53:37.103Z,67.11
2023-04-27T07:56:07.941Z,68.38
2023-04-27T07:58:38.193Z,69.58
2023-04-27T08:01:07.573Z,68.59
2023-04-27T08:03:37.405Z,66.67
2023-04-27T08:06:07.588Z,65.66
2023-04-27T08:08:37.341Z,65.45
2023-04-27T08:11:08.395Z,65.16
2023-04-27T08:13:37.737Z,65.32
2023-04-27T08:16:07.649Z,64.49
2023-04-27T08:18:37.268Z,65.53
2023-04-27T08:21:06.920Z,62.24
2023-04-27T08:23:37.845Z,63.27
2023-04-27T08:26:07.788Z,62.56
2023-04-27T08:28:37.241Z,61.35
2023-04-27T08:31:07.099Z,63.08
2023-04-27T08:33:36.655Z,62.63
2023-04-27T08:36:07.185Z,59.55
2023-04-27T08:38:36.799Z,61.73
2023-04-27T08:41:20.295Z,59.21
2023-04-27T08:43:37.792Z,59.32
2023-04-27T08:46:07.806Z,59.05
2023-04-27T08:48:37.658Z,57.08
2023-04-27T08:51:08.507Z,56.92
2023-04-27T08:53:37.881Z,58.94
2023-04-27T08:56:07.853Z,56.87
2023-04-27T08:58:38.469Z,55.48
2023-04-27T09:01:08.382Z,55.86
2023-04-27T09:03:38.578Z,57.80
2023-04-27T09:06:08.376Z,54.94
2023-04-27T09:08:48.094Z,55.00
2023-04-27T09:11:20.080Z,53.14
2023-04-27T09:13:49.531Z,53.60
2023-04-27T09:16:22.067Z,55.25
2023-04-27T09:18:50.896Z,53.79
2023-04-27T09:21:27.815Z,52.30
2023-04-27T09:23:57.903Z,50.71
2023-04-27T09:26:28.398Z,54.42
2023-04-27T09:28:57.840Z,51.71
2023-04-27T09:31:35.299Z,54.34
2023-04-27T09:34:06.007Z,49.87
2023-04-27T09:36:36.082Z,50.75
2023-04-27T09:39:05.536Z,50.51
2023-04-27T09:41:35.223Z,49.40
2023-04-27T09:44:04.992Z,50.18
2023-04-27T09:46:34.823Z,48.69
2023-04-27T09:49:06.059Z,45.28
2023-04-27T09:51:36.378Z,45.17
2023-04-27T09:54:06.194Z,46.06
2023-04-27T09:56:56.605Z,45.02
2023-04-27T09:59:48.641Z,43.58
2023-04-27T10:02:25.162Z,45.95
2023-04-27T10:04:56.332Z,43.51
2023-04-27T10:07:27.541Z,44.34
2023-04-27T10:10:00.312Z,44.66
2023-04-27T10:12:37.070Z,42.84
2023-04-27T10:15:17.922Z,39.60
2023-04-27T10:17:53.791Z,38.96
2023-04-27T10:20:33.757Z,40.72
2023-04-27T10:23:03.322Z,40.72
2023-04-27T10:25:41.013Z,39.38
2023-04-27T10:28:13.619Z,40.04
2023-04-27T10:30:44.069Z,39.49
2023-04-27T10:33:16.697Z,38.06
2023-04-27T10:35:58.011Z,36.44
2023-04-27T10:38:32.706Z,36.44
2023-04-27T10:41:05.207Z,38.47
2023-04-27T10:43:37.480Z,37.31
2023-04-27T10:46:10.488Z,36.98
2023-04-27T10:48:42.442Z,34.55
2023-04-27T10:51:12.290Z,37.80
2023-04-27T10:53:42.099Z,36.33
2023-04-27T10:56:12.343Z,35.82
2023-04-27T10:58:49.076Z,36.24
2023-04-27T11:01:12.707Z,34.80
2023-04-27T11:03:43.712Z,34.34
2023-04-27T11:06:13.121Z,33.71
2023-04-27T11:08:46.024Z,34.65
2023-04-27T11:11:18.840Z,36.06
2023-04-27T11:13:50.004Z,34.37
2023-04-27T11:16:20.104Z,34.27
2023-04-27T11:18:49.614Z,35.37
2023-04-27T11:21:21.751Z,31.29
2023-04-27T11:23:50.369Z,33.15
2023-04-27T11:26:23.982Z,30.90
2023-04-27T11:29:09.646Z,32.46
2023-04-27T11:31:50.638Z,31.99
2023-04-27T11:34:24.571Z,34.37
2023-04-27T11:39:39.016Z,35.57
2023-04-27T11:42:22.681Z,32.42
2023-04-27T11:44:59.550Z,33.33
2023-04-27T11:47:30.791Z,34.49
2023-04-27T11:50:02.250Z,35.93
2023-04-27T11:52:37.184Z,33.16
2023-04-27T11:55:08.951Z,34.16
2023-04-27T11:57:39.429Z,33.98
2023-04-27T12:00:11.261Z,31.99
2023-04-27T12:02:45.109Z,29.79
2023-04-27T12:05:15.590Z,34.07
2023-04-27T12:07:44.961Z,32.82
2023-04-27T12:10:14.367Z,34.87
2023-04-27T12:12:43.841Z,36.52
2023-04-27T12:15:13.651Z,35.63
2023-04-27T12:17:43.214Z,32.67
2023-04-27T12:20:14.725Z,32.89
2023-04-27T12:22:44.240Z,32.77
2023-04-27T12:25:13.981Z,35.27
2023-04-27T12:27:43.854Z,35.40
2023-04-27T12:30:13.597Z,34.95
2023-04-27T12:32:43.432Z,32.53
2023-04-27T12:35:13.031Z,35.00
2023-04-27T12:37:42.664Z,34.97
2023-04-27T12:40:12.399Z,33.46
2023-04-27T12:42:41.703Z,35.54
2023-04-27T12:45:11.382Z,34.56
2023-04-27T12:50:12.156Z,35.09
2023-04-27T12:52:41.662Z,36.50
2023-04-27T12:55:24.772Z,33.39
2023-04-27T12:57:42.115Z,33.85
2023-04-27T13:00:13.677Z,33.71
2023-04-27T13:02:43.647Z,36.81
2023-04-27T13:05:14.925Z,35.76
2023-04-27T13:07:44.590Z,36.57
2023-04-27T13:10:14.119Z,37.13
2023-04-27T13:12:43.597Z,36.01
2023-04-27T13:15:13.199Z,36.84
2023-04-27T13:17:43.816Z,36.51
2023-04-27T13:20:15.399Z,38.92
2023-04-27T13:22:44.833Z,35.65
2023-04-27T13:25:15.455Z,35.97
2023-04-27T13:27:44.929Z,36.53
2023-04-27T13:30:14.797Z,39.05
2023-04-27T13:32:44.103Z,35.87
2023-04-27T13:35:14.631Z,39.74
2023-04-27T13:37:43.950Z,38.13
2023-04-27T13:40:13.677Z,38.63
2023-04-27T13:42:42.965Z,36.96
2023-04-27T13:45:12.648Z,39.84
2023-04-27T13:47:42.322Z,35.89
2023-04-27T13:50:12.721Z,37.08
2023-04-27T13:52:42.077Z,38.40
2023-04-27T13:55:12.702Z,39.52
2023-04-27T13:57:42.020Z,38.00
2023-04-27T14:00:12.942Z,40.21
2023-04-27T14:02:42.864Z,38.34
2023-04-27T14:05:12.814Z,37.38
2023-04-27T14:07:42.109Z,37.70
2023-04-27T14:10:11.794Z,36.70
2023-04-27T14:12:41.609Z,36.12
2023-04-27T14:15:11.403Z,36.40
2023-04-27T14:17:40.838Z,36.78
2023-04-27T14:20:10.465Z,36.31
2023-04-27T14:22:39.949Z,37.76
2023-04-27T14:25:10.126Z,38.66
2023-04-27T14:27:39.715Z,38.65
2023-04-27T14:30:10.370Z,36.82
2023-04-27T14:32:39.824Z,38.95
2023-04-27T14:35:09.674Z,38.30
2023-04-27T14:37:38.970Z,36.22
2023-04-27T14:40:10.201Z,36.50
2023-04-27T14:42:39.883Z,37.03
2023-04-27T14:45:10.238Z,36.10
2023-04-27T14:47:40.363Z,39.54
2023-04-27T14:50:11.666Z,38.69
2023-04-27T14:52:40.923Z,35.32
2023-04-27T14:55:12.875Z,38.09
2023-04-27T14:57:42.123Z,37.70
2023-04-27T15:00:14.528Z,37.29
2023-04-27T15:02:43.900Z,38.39
2023-04-27T15:05:13.598Z,37.49
2023-04-27T15:07:42.843Z,36.81
2023-04-27T15:10:12.708Z,39.20
2023-04-27T15:12:42.531Z,37.57
2023-04-27T15:15:13.988Z,40.40
2023-04-27T15:17:43.291Z,38.37
2023-04-27T15:20:13.914Z,38.75
2023-04-27T15:22:43.308Z,39.49
2023-04-27T15:25:12.602Z,39.12
2023-04-27T15:27:42.233Z,38.94
2023-04-27T15:30:12.118Z,38.50
2023-04-27T15:32:41.828Z,38.59
2023-04-27T15:35:11.919Z,39.96
2023-04-27T15:37:41.481Z,38.43
2023-04-27T15:40:11.753Z,37.80
2023-04-27T15:42:41.268Z,38.67
2023-04-27T15:45:11.565Z,39.34
2023-04-27T15:47:40.836Z,39.48
2023-04-27T15:50:10.826Z,40.26
2023-04-27T15:52:40.357Z,38.79
2023-04-27T15:55:10.111Z,42.79
2023-04-27T15:57:40.208Z,38.57
2023-04-27T16:00:15.314Z,40.03
2023-04-27T16:02:44.705Z,38.45
2023-04-27T16:05:14.369Z,39.31
2023-04-27T16:07:45.180Z,38.05
2023-04-27T16:10:15.035Z,38.14
2023-04-27T16:12:44.782Z,41.76
2023-04-27T16:15:14.443Z,40.77
2023-04-27T16:17:44.048Z,41.88
2023-04-27T16:20:13.457Z,41.24
2023-04-27T16:22:42.878Z,42.86
2023-04-27T16:25:12.166Z,42.05
2023-04-27T16:27:42.581Z,42.71
2023-04-27T16:30:11.984Z,44.67
2023-04-27T16:32:41.415Z,45.48
2023-04-27T16:35:10.816Z,43.95
2023-04-27T16:37:40.278Z,44.03
2023-04-27T16:40:10.368Z,44.29
2023-04-27T16:42:39.667Z,45.88
2023-04-27T16:45:10.846Z,45.90
2023-04-27T16:47:42.006Z,46.44
2023-04-27T16:50:12.003Z,47.24
2023-04-27T16:52:41.531Z,46.96
2023-04-27T16:55:11.732Z,48.49
2023-04-27T16:57:41.728Z,48.18
2023-04-27T17:00:12.094Z,49.00
2023-04-27T17:02:43.732Z,48.85
2023-04-27T17:05:12.898Z,50.14
2023-04-27T17:07:43.443Z,50.10
2023-04-27T17:10:12.861Z,49.54
2023-04-27T17:12:42.291Z,50.17
2023-04-27T17:15:12.777Z,50.35
2023-04-27T17:17:42.376Z,50.34
2023-04-27T17:20:13.366Z,49.38
2023-04-27T17:22:42.741Z,49.37
2023-04-27T17:25:12.381Z,49.48
2023-04-27T17:27:41.982Z,50.84
2023-04-27T17:30:12.175Z,52.68
2023-04-27T17:32:41.730Z,51.84
2023-04-27T17:35:11.649Z,50.97
2023-04-27T17:37:40.966Z,51.71
2023-04-27T17:40:11.766Z,50.60
2023-04-27T17:42:41.184Z,49.97
2023-04-27T17:45:11.306Z,49.77
2023-04-27T17:47:41.242Z,50.76
2023-04-27T17:50:11.355Z,50.62
2023-04-27T17:52:40.827Z,52.36
2023-04-27T17:55:10.321Z,51.16
2023-04-27T17:57:41.067Z,51.78
2023-04-27T18:00:12.130Z,52.87
2023-04-27T18:02:42.348Z,50.36
2023-04-27T18:05:11.838Z,51.98
2023-04-27T18:07:41.713Z,52.54
2023-04-27T18:10:11.110Z,53.02
2023-04-27T18:12:40.444Z,54.40
2023-04-27T18:15:10.609Z,53.98
2023-04-27T18:17:40.117Z,54.43
2023-04-27T18:20:10.977Z,53.97
2023-04-27T18:22:41.583Z,54.25
2023-04-27T18:25:12.196Z,55.02
2023-04-27T18:27:43.914Z,55.35
2023-04-27T18:30:13.917Z,54.78
2023-04-27T18:32:43.421Z,56.56
2023-04-27T18:35:12.703Z,57.27
2023-04-27T18:37:42.259Z,56.23
2023-04-27T18:40:12.951Z,56.72
2023-04-27T18:42:42.327Z,56.29
2023-04-27T18:45:12.522Z,55.70
2023-04-27T18:47:42.137Z,56.19
2023-04-27T18:50:15.400Z,56.70
2023-04-27T18:52:45.146Z,57.53
2023-04-27T18:55:16.378Z,57.89
2023-04-27T18:57:46.618Z,56.51
2023-04-27T19:00:16.713Z,57.37
2023-04-27T19:02:46.642Z,57.13
2023-04-27T19:05:16.249Z,57.66
2023-04-27T19:07:45.941Z,57.55
2023-04-27T19:10:15.345Z,58.03
2023-04-27T19:12:44.654Z,57.42
2023-04-27T19:15:14.421Z,59.04
2023-04-27T19:17:44.035Z,59.17
2023-04-27T19:20:13.390Z,58.32
2023-04-27T19:22:42.737Z,58.29
2023-04-27T19:25:12.200Z,59.00
2023-04-27T19:27:41.582Z,58.74
2023-04-27T19:30:12.257Z,59.90
2023-04-27T19:32:42.123Z,58.62
2023-04-27T19:35:12.808Z,57.91
2023-04-27T19:37:42.279Z,58.43
2023-04-27T19:40:14.638Z,58.46
2023-04-27T19:42:44.179Z,58.48
2023-04-27T19:45:13.628Z,58.57
2023-04-27T19:47:44.614Z,59.02
2023-04-27T19:50:14.058Z,60.60
2023-04-27T19:52:45.158Z,58.39
2023-04-27T19:55:16.159Z,58.96
2023-04-27T19:57:45.864Z,59.37
2023-04-27T20:00:15.626Z,58.56
2023-04-27T20:02:45.988Z,58.93
2023-04-27T20:05:16.029Z,58.55
2023-04-27T20:07:45.657Z,59.99
2023-04-27T20:10:15.264Z,59.73
2023-04-27T20:12:55.968Z,60.66
2023-04-27T20:15:16.922Z,60.92
2023-04-27T20:17:46.362Z,60.66
2023-04-27T20:20:15.931Z,60.82
2023-04-27T20:22:46.047Z,60.62
2023-04-27T20:25:15.641Z,61.23
2023-04-27T20:27:44.938Z,61.41
2023-04-27T20:30:14.338Z,61.48
2023-04-27T20:32:44.264Z,61.13
2023-04-27T20:35:13.698Z,61.13
2023-04-27T20:37:43.670Z,61.79
2023-04-27T20:40:14.899Z,62.72
2023-04-27T20:42:46.047Z,62.08
2023-04-27T20:45:17.599Z,61.29
2023-04-27T20:47:47.010Z,62.06
2023-04-27T20:50:16.710Z,61.69
2023-04-27T20:52:46.298Z,61.05
2023-04-27T20:55:15.671Z,61.15
2023-04-27T20:57:45.130Z,62.02
2023-04-27T21:00:15.618Z,62.21
2023-04-27T21:02:45.147Z,62.01
2023-04-27T21:05:14.501Z,61.29
2023-04-27T21:07:44.200Z,62.80
2023-04-27T21:10:13.519Z,63.12
2023-04-27T21:12:42.811Z,61.40
2023-04-27T21:15:12.229Z,62.40
2023-04-27T21:17:41.865Z,61.79
2023-04-27T21:20:11.555Z,62.05
2023-04-27T21:22:41.195Z,61.58
2023-04-27T21:25:10.857Z,62.84
2023-04-27T21:27:41.170Z,62.34
2023-04-27T21:30:11.353Z,62.99
2023-04-27T21:32:41.070Z,61.98
2023-04-27T21:35:11.120Z,62.79
2023-04-27T21:37:40.591Z,63.04
2023-04-27T21:40:10.465Z,62.92
2023-04-27T21:42:39.758Z,62.80
2023-04-27T21:45:10.114Z,62.25
2023-04-27T21:47:39.869Z,63.27
2023-04-27T21:50:09.785Z,63.09
2023-04-27T21:52:39.359Z,62.73
2023-04-27T21:55:09.313Z,62.65
2023-04-27T21:57:38.614Z,62.57
2023-04-27T22:00:10.291Z,63.10
2023-04-27T22:02:44.814Z,64.40
2023-04-27T22:05:14.266Z,64.03
2023-04-27T22:07:46.046Z,63.83
2023-04-27T22:10:15.581Z,63.83
2023-04-27T22:12:46.805Z,63.21
2023-04-27T22:15:16.279Z,64.25
2023-04-27T22:17:45.851Z,64.11
2023-04-27T22:20:16.219Z,63.85
2023-04-27T22:22:46.364Z,63.10
2023-04-27T22:25:15.874Z,62.77
2023-04-27T22:27:45.701Z,61.68
2023-04-27T22:30:15.982Z,61.54
2023-04-27T22:32:46.009Z,60.67
2023-04-27T22:35:25.442Z,60.70
2023-04-27T22:37:49.044Z,60.61
2023-04-27T22:40:18.697Z,61.54
2023-04-27T22:42:48.034Z,61.05
2023-04-27T22:45:17.483Z,63.70
2023-04-27T22:47:46.890Z,63.40
2023-04-27T22:50:16.586Z,63.66
2023-04-27T22:52:46.150Z,64.34
2023-04-27T22:55:16.084Z,64.09
2023-04-27T22:57:46.006Z,64.44
2023-04-27T23:00:16.092Z,64.54
2023-04-27T23:02:45.543Z,65.70
2023-04-27T23:05:15.145Z,65.65
2023-04-27T23:07:46.372Z,64.54
2023-04-27T23:10:15.785Z,65.83
2023-04-27T23:12:45.336Z,63.90
2023-04-27T23:15:15.335Z,64.81
2023-04-27T23:17:44.966Z,66.03
2023-04-27T23:20:27.416Z,66.56
2023-04-27T23:22:46.938Z,67.89
2023-04-27T23:25:16.282Z,67.65
2023-04-27T23:27:46.154Z,67.82
2023-04-27T23:30:15.578Z,69.30
2023-04-27T23:32:44.859Z,69.97
2023-04-27T23:35:14.337Z,71.25
2023-04-27T23:37:44.346Z,71.60
2023-04-27T23:40:14.327Z,70.63
2023-04-27T23:42:43.680Z,70.42
2023-04-27T23:45:13.359Z,72.01
2023-04-27T23:47:43.181Z,73.96
2023-04-27T23:50:12.499Z,73.08
2023-04-27T23:52:41.929Z,74.16
2023-04-27T23:55:11.413Z,76.35
2023-04-27T23:57:41.441Z,77.76
